sensor_id;sensor_type;location;lat;lon;timestamp;temperature;humidity
10294;DHT22;5192;50.328;7.610;2023-05-27T00:01:16;9.70;20.10
10294;DHT22;5192;50.328;7.610;2023-05-27T00:03:47;9.60;20.70
10294;DHT22;5192;50.328;7.610;2023-05-27T00:06:15;9.60;20.70
10294;DHT22;5192;50.328;7.610;2023-05-27T00:08:42;9.60;22.20
10294;DHT22;5192;50.328;7.610;2023-05-27T00:11:09;9.50;22.30
10294;DHT22;5192;50.328;7.610;2023-05-27T00:13:36;9.50;23.60
10294;DHT22;5192;50.328;7.610;2023-05-27T00:16:03;9.50;23.20
10294;DHT22;5192;50.328;7.610;2023-05-27T00:18:29;9.50;23.00
10294;DHT22;5192;50.328;7.610;2023-05-27T00:21:08;9.50;24.00
10294;DHT22;5192;50.328;7.610;2023-05-27T00:23:35;9.50;24.30
10294;DHT22;5192;50.328;7.610;2023-05-27T00:26:03;9.40;25.50
10294;DHT22;5192;50.328;7.610;2023-05-27T00:28:29;9.40;25.80
10294;DHT22;5192;50.328;7.610;2023-05-27T00:30:59;9.40;26.60
10294;DHT22;5192;50.328;7.610;2023-05-27T00:33:27;9.30;25.80
10294;DHT22;5192;50.328;7.610;2023-05-27T00:35:55;9.30;25.10
10294;DHT22;5192;50.328;7.610;2023-05-27T00:38:22;9.30;25.60
10294;DHT22;5192;50.328;7.610;2023-05-27T00:40:49;9.30;25.70
10294;DHT22;5192;50.328;7.610;2023-05-27T00:43:18;9.40;25.90
10294;DHT22;5192;50.328;7.610;2023-05-27T00:45:49;9.30;27.10
10294;DHT22;5192;50.328;7.610;2023-05-27T00:48:16;9.20;27.40
10294;DHT22;5192;50.328;7.610;2023-05-27T00:50:44;9.20;28.00
10294;DHT22;5192;50.328;7.610;2023-05-27T00:53:10;9.10;27.90
10294;DHT22;5192;50.328;7.610;2023-05-27T00:55:36;9.10;29.20
10294;DHT22;5192;50.328;7.610;2023-05-27T00:58:04;9.10;29.20
10294;DHT22;5192;50.328;7.610;2023-05-27T01:00:35;9.10;29.30
10294;DHT22;5192;50.328;7.610;2023-05-27T01:03:07;9.00;29.40
10294;DHT22;5192;50.328;7.610;2023-05-27T01:05:34;9.00;30.00
10294;DHT22;5192;50.328;7.610;2023-05-27T01:11:09;9.00;30.00
10294;DHT22;5192;50.328;7.610;2023-05-27T01:13:40;9.00;30.00
10294;DHT22;5192;50.328;7.610;2023-05-27T01:16:15;8.90;30.10
10294;DHT22;5192;50.328;7.610;2023-05-27T01:18:44;8.90;30.70
10294;DHT22;5192;50.328;7.610;2023-05-27T01:21:16;8.90;31.10
10294;DHT22;5192;50.328;7.610;2023-05-27T01:23:51;8.80;31.10
10294;DHT22;5192;50.328;7.610;2023-05-27T01:26:19;8.70;31.50
10294;DHT22;5192;50.328;7.610;2023-05-27T01:28:46;8.70;32.40
10294;DHT22;5192;50.328;7.610;2023-05-27T01:31:35;8.70;33.40
10294;DHT22;5192;50.328;7.610;2023-05-27T01:34:10;8.60;33.70
10294;DHT22;5192;50.328;7.610;2023-05-27T01:36:47;8.60;34.60
10294;DHT22;5192;50.328;7.610;2023-05-27T01:39:15;8.60;34.90
10294;DHT22;5192;50.328;7.610;2023-05-27T01:41:42;8.60;35.60
10294;DHT22;5192;50.328;7.610;2023-05-27T01:44:11;8.60;36.10
10294;DHT22;5192;50.328;7.610;2023-05-27T01:46:44;8.50;36.90
10294;DHT22;5192;50.328;7.610;2023-05-27T01:49:11;8.50;37.10
10294;DHT22;5192;50.328;7.610;2023-05-27T01:51:38;8.50;37.40
10294;DHT22;5192;50.328;7.610;2023-05-27T01:54:06;8.50;36.80
10294;DHT22;5192;50.328;7.610;2023-05-27T01:56:32;8.40;37.10
10294;DHT22;5192;50.328;7.610;2023-05-27T01:58:59;8.40;38.00
10294;DHT22;5192;50.328;7.610;2023-05-27T02:01:27;8.40;38.80
10294;DHT22;5192;50.328;7.610;2023-05-27T02:03:53;8.40;40.10
10294;DHT22;5192;50.328;7.610;2023-05-27T02:06:20;8.40;38.10
10294;DHT22;5192;50.328;7.610;2023-05-27T02:08:48;8.40;38.60
10294;DHT22;5192;50.328;7.610;2023-05-27T02:11:13;8.30;39.60
10294;DHT22;5192;50.328;7.610;2023-05-27T02:13:41;8.30;40.10
10294;DHT22;5192;50.328;7.610;2023-05-27T02:16:10;8.30;40.40
10294;DHT22;5192;50.328;7.610;2023-05-27T02:18:39;8.30;41.30
10294;DHT22;5192;50.328;7.610;2023-05-27T02:21:08;8.30;41.30
10294;DHT22;5192;50.328;7.610;2023-05-27T02:23:34;8.30;42.40
10294;DHT22;5192;50.328;7.610;2023-05-27T02:26:02;8.30;42.90
10294;DHT22;5192;50.328;7.610;2023-05-27T02:28:27;8.30;42.80
10294;DHT22;5192;50.328;7.610;2023-05-27T02:30:54;8.20;43.10
10294;DHT22;5192;50.328;7.610;2023-05-27T02:33:21;8.20;43.00
10294;DHT22;5192;50.328;7.610;2023-05-27T02:35:48;8.20;43.00
10294;DHT22;5192;50.328;7.610;2023-05-27T02:38:16;8.20;43.60
10294;DHT22;5192;50.328;7.610;2023-05-27T02:40:44;8.10;44.90
10294;DHT22;5192;50.328;7.610;2023-05-27T02:43:11;8.10;45.10
10294;DHT22;5192;50.328;7.610;2023-05-27T02:45:38;8.00;46.00
10294;DHT22;5192;50.328;7.610;2023-05-27T02:48:06;8.00;46.80
10294;DHT22;5192;50.328;7.610;2023-05-27T02:50:34;8.00;47.70
10294;DHT22;5192;50.328;7.610;2023-05-27T02:53:00;7.90;48.40
10294;DHT22;5192;50.328;7.610;2023-05-27T02:55:26;7.90;48.70
10294;DHT22;5192;50.328;7.610;2023-05-27T02:57:54;8.00;48.70
10294;DHT22;5192;50.328;7.610;2023-05-27T03:00:21;7.80;49.10
10294;DHT22;5192;50.328;7.610;2023-05-27T03:02:48;8.00;50.00
10294;DHT22;5192;50.328;7.610;2023-05-27T03:05:15;7.80;50.00
10294;DHT22;5192;50.328;7.610;2023-05-27T03:07:43;7.70;50.70
10294;DHT22;5192;50.328;7.610;2023-05-27T03:10:09;7.70;51.40
10294;DHT22;5192;50.328;7.610;2023-05-27T03:12:37;7.70;51.70
10294;DHT22;5192;50.328;7.610;2023-05-27T03:15:04;7.70;51.50
10294;DHT22;5192;50.328;7.610;2023-05-27T03:17:31;7.60;51.60
10294;DHT22;5192;50.328;7.610;2023-05-27T03:19:57;7.60;51.80
10294;DHT22;5192;50.328;7.610;2023-05-27T03:22:24;7.60;52.50
10294;DHT22;5192;50.328;7.610;2023-05-27T03:24:51;7.60;52.60
10294;DHT22;5192;50.328;7.610;2023-05-27T03:27:19;7.50;53.00
10294;DHT22;5192;50.328;7.610;2023-05-27T03:29:45;7.50;53.40
10294;DHT22;5192;50.328;7.610;2023-05-27T03:32:12;7.50;53.70
10294;DHT22;5192;50.328;7.610;2023-05-27T03:34:37;7.50;54.20
10294;DHT22;5192;50.328;7.610;2023-05-27T03:37:06;7.40;54.00
10294;DHT22;5192;50.328;7.610;2023-05-27T03:39:34;7.40;55.00
10294;DHT22;5192;50.328;7.610;2023-05-27T03:42:02;7.40;55.20
10294;DHT22;5192;50.328;7.610;2023-05-27T03:44:31;7.40;56.50
10294;DHT22;5192;50.328;7.610;2023-05-27T03:46:58;7.40;55.80
10294;DHT22;5192;50.328;7.610;2023-05-27T03:49:26;7.30;56.30
10294;DHT22;5192;50.328;7.610;2023-05-27T03:51:53;7.40;56.70
10294;DHT22;5192;50.328;7.610;2023-05-27T03:54:20;7.40;56.30
10294;DHT22;5192;50.328;7.610;2023-05-27T03:56:46;7.30;58.20
10294;DHT22;5192;50.328;7.610;2023-05-27T03:59:12;7.40;58.60
10294;DHT22;5192;50.328;7.610;2023-05-27T04:01:41;7.50;59.20
10294;DHT22;5192;50.328;7.610;2023-05-27T04:04:11;7.40;59.60
10294;DHT22;5192;50.328;7.610;2023-05-27T04:06:39;7.40;59.90
10294;DHT22;5192;50.328;7.610;2023-05-27T04:09:08;7.30;60.20
10294;DHT22;5192;50.328;7.610;2023-05-27T04:11:35;7.40;60.80
10294;DHT22;5192;50.328;7.610;2023-05-27T04:14:02;7.40;61.30
10294;DHT22;5192;50.328;7.610;2023-05-27T04:16:28;7.40;61.60
10294;DHT22;5192;50.328;7.610;2023-05-27T04:18:57;7.40;62.40
10294;DHT22;5192;50.328;7.610;2023-05-27T04:21:26;7.40;62.10
10294;DHT22;5192;50.328;7.610;2023-05-27T04:23:54;7.50;61.70
10294;DHT22;5192;50.328;7.610;2023-05-27T04:26:20;7.50;61.90
10294;DHT22;5192;50.328;7.610;2023-05-27T04:28:49;7.50;61.50
10294;DHT22;5192;50.328;7.610;2023-05-27T04:31:16;7.60;61.30
10294;DHT22;5192;50.328;7.610;2023-05-27T04:33:42;7.60;61.80
10294;DHT22;5192;50.328;7.610;2023-05-27T04:36:08;7.60;61.70
10294;DHT22;5192;50.328;7.610;2023-05-27T04:38:37;7.60;61.10
10294;DHT22;5192;50.328;7.610;2023-05-27T04:41:04;7.60;61.60
10294;DHT22;5192;50.328;7.610;2023-05-27T04:43:30;7.70;61.90
10294;DHT22;5192;50.328;7.610;2023-05-27T04:45:58;7.70;62.00
10294;DHT22;5192;50.328;7.610;2023-05-27T04:48:30;7.70;61.90
10294;DHT22;5192;50.328;7.610;2023-05-27T04:50:57;7.70;62.00
10294;DHT22;5192;50.328;7.610;2023-05-27T04:53:25;7.80;62.80
10294;DHT22;5192;50.328;7.610;2023-05-27T04:55:52;7.80;63.20
10294;DHT22;5192;50.328;7.610;2023-05-27T04:58:20;7.80;63.20
10294;DHT22;5192;50.328;7.610;2023-05-27T05:00:47;7.90;63.40
10294;DHT22;5192;50.328;7.610;2023-05-27T05:03:19;7.90;63.80
10294;DHT22;5192;50.328;7.610;2023-05-27T05:06:04;8.00;64.20
10294;DHT22;5192;50.328;7.610;2023-05-27T05:08:31;8.00;64.10
10294;DHT22;5192;50.328;7.610;2023-05-27T05:11:00;8.10;63.30
10294;DHT22;5192;50.328;7.610;2023-05-27T05:13:28;8.20;63.50
10294;DHT22;5192;50.328;7.610;2023-05-27T05:15:56;8.30;63.40
10294;DHT22;5192;50.328;7.610;2023-05-27T05:18:22;8.30;62.40
10294;DHT22;5192;50.328;7.610;2023-05-27T05:20:49;8.40;62.40
10294;DHT22;5192;50.328;7.610;2023-05-27T05:23:17;8.40;61.80
10294;DHT22;5192;50.328;7.610;2023-05-27T05:25:46;8.50;62.00
10294;DHT22;5192;50.328;7.610;2023-05-27T05:28:15;8.60;61.40
10294;DHT22;5192;50.328;7.610;2023-05-27T05:30:45;8.60;61.00
10294;DHT22;5192;50.328;7.610;2023-05-27T05:33:10;8.70;61.40
10294;DHT22;5192;50.328;7.610;2023-05-27T05:35:41;8.70;61.40
10294;DHT22;5192;50.328;7.610;2023-05-27T05:38:09;8.80;60.90
10294;DHT22;5192;50.328;7.610;2023-05-27T05:40:39;8.90;57.60
10294;DHT22;5192;50.328;7.610;2023-05-27T05:43:04;9.00;57.30
10294;DHT22;5192;50.328;7.610;2023-05-27T05:45:33;9.10;57.10
10294;DHT22;5192;50.328;7.610;2023-05-27T05:48:01;9.10;54.90
10294;DHT22;5192;50.328;7.610;2023-05-27T05:50:28;9.20;55.30
10294;DHT22;5192;50.328;7.610;2023-05-27T05:52:56;9.30;53.50
10294;DHT22;5192;50.328;7.610;2023-05-27T05:55:21;9.50;51.70
10294;DHT22;5192;50.328;7.610;2023-05-27T05:57:48;9.50;46.10
10294;DHT22;5192;50.328;7.610;2023-05-27T06:00:15;9.60;46.10
10294;DHT22;5192;50.328;7.610;2023-05-27T06:02:43;9.70;44.30
10294;DHT22;5192;50.328;7.610;2023-05-27T06:05:10;9.80;42.00
10294;DHT22;5192;50.328;7.610;2023-05-27T06:07:37;9.90;40.10
10294;DHT22;5192;50.328;7.610;2023-05-27T06:10:05;10.00;41.00
10294;DHT22;5192;50.328;7.610;2023-05-27T06:12:32;10.20;41.20
10294;DHT22;5192;50.328;7.610;2023-05-27T06:14:58;10.20;40.20
10294;DHT22;5192;50.328;7.610;2023-05-27T06:17:24;10.30;40.10
10294;DHT22;5192;50.328;7.610;2023-05-27T06:19:51;10.40;39.70
10294;DHT22;5192;50.328;7.610;2023-05-27T06:22:17;10.40;37.10
10294;DHT22;5192;50.328;7.610;2023-05-27T06:24:43;10.50;36.70
10294;DHT22;5192;50.328;7.610;2023-05-27T06:27:09;10.60;37.10
10294;DHT22;5192;50.328;7.610;2023-05-27T06:29:36;10.80;36.60
10294;DHT22;5192;50.328;7.610;2023-05-27T06:32:03;10.80;34.00
10294;DHT22;5192;50.328;7.610;2023-05-27T06:34:33;10.90;31.90
10294;DHT22;5192;50.328;7.610;2023-05-27T06:36:58;11.10;28.10
10294;DHT22;5192;50.328;7.610;2023-05-27T06:39:26;11.20;26.60
10294;DHT22;5192;50.328;7.610;2023-05-27T06:41:54;11.30;25.70
10294;DHT22;5192;50.328;7.610;2023-05-27T06:44:22;11.50;26.60
10294;DHT22;5192;50.328;7.610;2023-05-27T06:46:48;11.70;26.40
10294;DHT22;5192;50.328;7.610;2023-05-27T06:49:16;11.80;25.70
10294;DHT22;5192;50.328;7.610;2023-05-27T06:51:46;11.90;25.60
10294;DHT22;5192;50.328;7.610;2023-05-27T06:54:13;12.10;24.40
10294;DHT22;5192;50.328;7.610;2023-05-27T06:56:41;12.20;22.60
10294;DHT22;5192;50.328;7.610;2023-05-27T06:59:09;12.30;22.40
10294;DHT22;5192;50.328;7.610;2023-05-27T07:01:36;12.40;22.90
10294;DHT22;5192;50.328;7.610;2023-05-27T07:04:03;12.40;21.00
10294;DHT22;5192;50.328;7.610;2023-05-27T07:06:30;12.50;22.40
10294;DHT22;5192;50.328;7.610;2023-05-27T07:08:59;12.50;18.70
10294;DHT22;5192;50.328;7.610;2023-05-27T07:11:25;12.60;20.80
10294;DHT22;5192;50.328;7.610;2023-05-27T07:13:54;12.70;16.80
10294;DHT22;5192;50.328;7.610;2023-05-27T07:16:22;12.90;15.00
10294;DHT22;5192;50.328;7.610;2023-05-27T07:18:50;13.10;16.90
10294;DHT22;5192;50.328;7.610;2023-05-27T07:21:18;13.10;16.00
10294;DHT22;5192;50.328;7.610;2023-05-27T07:23:49;13.10;13.10
10294;DHT22;5192;50.328;7.610;2023-05-27T07:26:17;13.20;13.50
10294;DHT22;5192;50.328;7.610;2023-05-27T07:28:46;13.20;11.20
10294;DHT22;5192;50.328;7.610;2023-05-27T07:31:14;13.30;12.40
10294;DHT22;5192;50.328;7.610;2023-05-27T07:33:41;13.40;8.30
10294;DHT22;5192;50.328;7.610;2023-05-27T07:36:07;13.50;6.80
10294;DHT22;5192;50.328;7.610;2023-05-27T07:38:33;13.70;2.00
10294;DHT22;5192;50.328;7.610;2023-05-27T07:41:00;13.80;1.00
10294;DHT22;5192;50.328;7.610;2023-05-27T07:43:26;14.00;1.00
10294;DHT22;5192;50.328;7.610;2023-05-27T07:45:53;14.00;1.00
10294;DHT22;5192;50.328;7.610;2023-05-27T07:48:20;14.20;1.00
10294;DHT22;5192;50.328;7.610;2023-05-27T07:50:46;14.30;1.00
10294;DHT22;5192;50.328;7.610;2023-05-27T07:53:13;14.40;1.00
10294;DHT22;5192;50.328;7.610;2023-05-27T07:55:40;14.40;1.00
10294;DHT22;5192;50.328;7.610;2023-05-27T07:58:08;14.60;1.00
10294;DHT22;5192;50.328;7.610;2023-05-27T08:00:36;14.70;1.00
10294;DHT22;5192;50.328;7.610;2023-05-27T08:03:03;14.80;1.00
10294;DHT22;5192;50.328;7.610;2023-05-27T08:05:29;14.80;1.00
10294;DHT22;5192;50.328;7.610;2023-05-27T08:07:56;15.00;1.00
10294;DHT22;5192;50.328;7.610;2023-05-27T08:10:25;15.10;1.00
10294;DHT22;5192;50.328;7.610;2023-05-27T08:12:52;15.20;1.00
10294;DHT22;5192;50.328;7.610;2023-05-27T08:15:18;15.30;1.00
10294;DHT22;5192;50.328;7.610;2023-05-27T08:17:46;15.40;1.00
10294;DHT22;5192;50.328;7.610;2023-05-27T08:20:13;15.40;1.00
10294;DHT22;5192;50.328;7.610;2023-05-27T08:22:41;15.50;1.00
10294;DHT22;5192;50.328;7.610;2023-05-27T08:25:08;15.60;1.00
10294;DHT22;5192;50.328;7.610;2023-05-27T08:28:04;15.60;1.00
10294;DHT22;5192;50.328;7.610;2023-05-27T08:30:29;15.80;1.00
10294;DHT22;5192;50.328;7.610;2023-05-27T08:32:56;15.90;1.00
10294;DHT22;5192;50.328;7.610;2023-05-27T08:35:26;16.00;1.00
10294;DHT22;5192;50.328;7.610;2023-05-27T08:37:54;16.00;1.00
10294;DHT22;5192;50.328;7.610;2023-05-27T08:40:21;16.10;1.00
10294;DHT22;5192;50.328;7.610;2023-05-27T08:42:48;16.20;1.00
10294;DHT22;5192;50.328;7.610;2023-05-27T08:45:15;16.30;1.00
10294;DHT22;5192;50.328;7.610;2023-05-27T08:47:44;16.60;1.00
10294;DHT22;5192;50.328;7.610;2023-05-27T08:50:11;16.50;1.00
10294;DHT22;5192;50.328;7.610;2023-05-27T08:52:46;16.60;1.00
10294;DHT22;5192;50.328;7.610;2023-05-27T08:55:16;16.70;1.00
10294;DHT22;5192;50.328;7.610;2023-05-27T08:57:50;16.80;1.00
10294;DHT22;5192;50.328;7.610;2023-05-27T09:00:19;16.80;1.00
10294;DHT22;5192;50.328;7.610;2023-05-27T09:02:46;16.90;1.00
10294;DHT22;5192;50.328;7.610;2023-05-27T09:05:15;16.90;1.00
10294;DHT22;5192;50.328;7.610;2023-05-27T09:07:42;17.00;1.00
10294;DHT22;5192;50.328;7.610;2023-05-27T09:10:09;17.00;1.00
10294;DHT22;5192;50.328;7.610;2023-05-27T09:12:36;17.10;1.00
10294;DHT22;5192;50.328;7.610;2023-05-27T09:15:05;17.20;1.00
10294;DHT22;5192;50.328;7.610;2023-05-27T09:17:33;17.40;1.00
10294;DHT22;5192;50.328;7.610;2023-05-27T09:20:00;17.50;1.00
10294;DHT22;5192;50.328;7.610;2023-05-27T09:22:31;17.60;1.00
10294;DHT22;5192;50.328;7.610;2023-05-27T09:24:58;17.70;1.00
10294;DHT22;5192;50.328;7.610;2023-05-27T09:27:42;17.70;1.00
10294;DHT22;5192;50.328;7.610;2023-05-27T09:30:10;17.80;1.00
10294;DHT22;5192;50.328;7.610;2023-05-27T09:32:39;17.90;1.00
10294;DHT22;5192;50.328;7.610;2023-05-27T09:35:06;17.90;1.00
10294;DHT22;5192;50.328;7.610;2023-05-27T09:37:34;18.00;1.00
10294;DHT22;5192;50.328;7.610;2023-05-27T09:40:20;18.10;1.00
10294;DHT22;5192;50.328;7.610;2023-05-27T09:42:49;18.20;1.00
10294;DHT22;5192;50.328;7.610;2023-05-27T09:45:19;18.20;1.00
10294;DHT22;5192;50.328;7.610;2023-05-27T09:47:53;18.30;1.00
10294;DHT22;5192;50.328;7.610;2023-05-27T09:50:21;18.40;1.00
10294;DHT22;5192;50.328;7.610;2023-05-27T09:52:49;18.60;1.00
10294;DHT22;5192;50.328;7.610;2023-05-27T09:55:19;18.70;1.00
10294;DHT22;5192;50.328;7.610;2023-05-27T09:57:51;18.70;1.00
10294;DHT22;5192;50.328;7.610;2023-05-27T10:00:20;18.80;1.00
10294;DHT22;5192;50.328;7.610;2023-05-27T10:02:48;18.90;1.00
10294;DHT22;5192;50.328;7.610;2023-05-27T10:05:21;19.00;1.00
10294;DHT22;5192;50.328;7.610;2023-05-27T10:07:48;19.10;1.00
10294;DHT22;5192;50.328;7.610;2023-05-27T10:10:18;19.20;1.00
10294;DHT22;5192;50.328;7.610;2023-05-27T10:12:49;19.40;1.00
10294;DHT22;5192;50.328;7.610;2023-05-27T10:15:35;19.30;1.00
10294;DHT22;5192;50.328;7.610;2023-05-27T10:18:06;19.40;1.00
10294;DHT22;5192;50.328;7.610;2023-05-27T10:20:50;19.50;1.00
10294;DHT22;5192;50.328;7.610;2023-05-27T10:23:30;19.70;1.00
10294;DHT22;5192;50.328;7.610;2023-05-27T10:26:08;19.80;1.00
10294;DHT22;5192;50.328;7.610;2023-05-27T10:28:47;19.90;1.00
10294;DHT22;5192;50.328;7.610;2023-05-27T10:31:32;19.90;1.00
10294;DHT22;5192;50.328;7.610;2023-05-27T10:34:04;20.00;1.00
10294;DHT22;5192;50.328;7.610;2023-05-27T10:36:34;20.20;1.00
10294;DHT22;5192;50.328;7.610;2023-05-27T10:39:20;20.20;1.00
10294;DHT22;5192;50.328;7.610;2023-05-27T10:41:55;20.20;1.00
10294;DHT22;5192;50.328;7.610;2023-05-27T10:44:37;20.40;1.00
10294;DHT22;5192;50.328;7.610;2023-05-27T10:47:13;20.50;1.00
10294;DHT22;5192;50.328;7.610;2023-05-27T10:49:47;20.60;1.00
10294;DHT22;5192;50.328;7.610;2023-05-27T10:52:14;20.80;1.00
10294;DHT22;5192;50.328;7.610;2023-05-27T10:54:46;20.80;1.00
10294;DHT22;5192;50.328;7.610;2023-05-27T10:57:14;21.00;1.00
10294;DHT22;5192;50.328;7.610;2023-05-27T10:59:54;21.00;1.00
10294;DHT22;5192;50.328;7.610;2023-05-27T11:02:22;21.10;1.00
10294;DHT22;5192;50.328;7.610;2023-05-27T11:04:50;21.20;1.00
10294;DHT22;5192;50.328;7.610;2023-05-27T11:07:21;21.30;1.00
10294;DHT22;5192;50.328;7.610;2023-05-27T11:10:05;21.40;1.00
10294;DHT22;5192;50.328;7.610;2023-05-27T11:12:32;21.50;1.00
10294;DHT22;5192;50.328;7.610;2023-05-27T11:14:59;21.70;1.00
10294;DHT22;5192;50.328;7.610;2023-05-27T11:17:25;21.80;1.00
10294;DHT22;5192;50.328;7.610;2023-05-27T11:19:53;21.90;1.00
10294;DHT22;5192;50.328;7.610;2023-05-27T11:22:19;22.00;1.00
10294;DHT22;5192;50.328;7.610;2023-05-27T11:25:04;22.10;1.00
10294;DHT22;5192;50.328;7.610;2023-05-27T11:27:39;22.00;1.00
10294;DHT22;5192;50.328;7.610;2023-05-27T11:30:11;22.10;1.00
10294;DHT22;5192;50.328;7.610;2023-05-27T11:32:43;22.10;1.00
10294;DHT22;5192;50.328;7.610;2023-05-27T11:35:16;22.10;1.00
10294;DHT22;5192;50.328;7.610;2023-05-27T11:37:51;22.20;1.00
10294;DHT22;5192;50.328;7.610;2023-05-27T11:40:18;22.40;1.00
10294;DHT22;5192;50.328;7.610;2023-05-27T11:42:47;22.50;1.00
10294;DHT22;5192;50.328;7.610;2023-05-27T11:45:19;22.50;1.00
10294;DHT22;5192;50.328;7.610;2023-05-27T11:47:46;22.60;1.00
10294;DHT22;5192;50.328;7.610;2023-05-27T11:50:18;22.60;1.00
10294;DHT22;5192;50.328;7.610;2023-05-27T11:55:39;22.60;1.00
10294;DHT22;5192;50.328;7.610;2023-05-27T11:58:06;22.70;1.00
10294;DHT22;5192;50.328;7.610;2023-05-27T12:00:34;22.70;1.00
10294;DHT22;5192;50.328;7.610;2023-05-27T12:03:03;22.60;1.00
10294;DHT22;5192;50.328;7.610;2023-05-27T12:05:31;22.80;1.00
10294;DHT22;5192;50.328;7.610;2023-05-27T12:08:02;23.00;1.00
10294;DHT22;5192;50.328;7.610;2023-05-27T12:10:29;23.10;1.00
10294;DHT22;5192;50.328;7.610;2023-05-27T12:13:08;23.20;1.00
10294;DHT22;5192;50.328;7.610;2023-05-27T12:15:34;23.40;1.00
10294;DHT22;5192;50.328;7.610;2023-05-27T12:18:01;23.40;1.00
10294;DHT22;5192;50.328;7.610;2023-05-27T12:20:28;23.40;1.00
10294;DHT22;5192;50.328;7.610;2023-05-27T12:22:55;23.50;1.00
10294;DHT22;5192;50.328;7.610;2023-05-27T12:25:22;23.50;1.00
10294;DHT22;5192;50.328;7.610;2023-05-27T12:27:48;23.70;1.00
10294;DHT22;5192;50.328;7.610;2023-05-27T12:30:17;24.00;1.00
10294;DHT22;5192;50.328;7.610;2023-05-27T12:32:45;24.10;1.00
10294;DHT22;5192;50.328;7.610;2023-05-27T12:35:13;24.20;1.00
10294;DHT22;5192;50.328;7.610;2023-05-27T12:37:40;24.20;1.00
10294;DHT22;5192;50.328;7.610;2023-05-27T12:40:09;24.10;1.00
10294;DHT22;5192;50.328;7.610;2023-05-27T12:42:41;24.10;1.00
10294;DHT22;5192;50.328;7.610;2023-05-27T12:45:12;24.30;1.00
10294;DHT22;5192;50.328;7.610;2023-05-27T12:47:39;24.30;1.00
10294;DHT22;5192;50.328;7.610;2023-05-27T12:50:07;24.40;1.00
10294;DHT22;5192;50.328;7.610;2023-05-27T12:52:34;24.40;1.00
10294;DHT22;5192;50.328;7.610;2023-05-27T12:55:02;24.60;1.00
10294;DHT22;5192;50.328;7.610;2023-05-27T12:57:30;24.70;1.00
10294;DHT22;5192;50.328;7.610;2023-05-27T12:59:57;24.60;1.00
10294;DHT22;5192;50.328;7.610;2023-05-27T13:02:24;24.70;1.00
10294;DHT22;5192;50.328;7.610;2023-05-27T13:04:51;24.70;1.00
10294;DHT22;5192;50.328;7.610;2023-05-27T13:07:25;24.70;1.00
10294;DHT22;5192;50.328;7.610;2023-05-27T13:09:54;24.90;1.00
10294;DHT22;5192;50.328;7.610;2023-05-27T13:12:23;24.90;1.00
10294;DHT22;5192;50.328;7.610;2023-05-27T13:14:54;24.90;1.00
10294;DHT22;5192;50.328;7.610;2023-05-27T13:17:23;24.70;1.00
10294;DHT22;5192;50.328;7.610;2023-05-27T13:19:50;24.60;1.00
10294;DHT22;5192;50.328;7.610;2023-05-27T13:22:17;24.80;1.00
10294;DHT22;5192;50.328;7.610;2023-05-27T13:24:42;25.20;1.00
10294;DHT22;5192;50.328;7.610;2023-05-27T13:27:09;25.00;1.00
10294;DHT22;5192;50.328;7.610;2023-05-27T13:29:36;24.80;1.00
10294;DHT22;5192;50.328;7.610;2023-05-27T13:32:03;25.10;1.00
10294;DHT22;5192;50.328;7.610;2023-05-27T13:34:33;25.20;1.00
10294;DHT22;5192;50.328;7.610;2023-05-27T13:37:00;25.20;1.00
10294;DHT22;5192;50.328;7.610;2023-05-27T13:39:27;25.40;1.00
10294;DHT22;5192;50.328;7.610;2023-05-27T13:41:53;25.50;1.00
10294;DHT22;5192;50.328;7.610;2023-05-27T13:44:19;25.50;1.00
10294;DHT22;5192;50.328;7.610;2023-05-27T13:46:45;25.40;1.00
10294;DHT22;5192;50.328;7.610;2023-05-27T13:49:11;25.50;1.00
10294;DHT22;5192;50.328;7.610;2023-05-27T13:51:45;25.80;1.00
10294;DHT22;5192;50.328;7.610;2023-05-27T13:54:13;25.90;1.00
10294;DHT22;5192;50.328;7.610;2023-05-27T13:56:38;26.10;1.00
10294;DHT22;5192;50.328;7.610;2023-05-27T13:59:07;26.20;1.00
10294;DHT22;5192;50.328;7.610;2023-05-27T14:01:36;26.40;1.00
10294;DHT22;5192;50.328;7.610;2023-05-27T14:04:04;26.40;1.00
10294;DHT22;5192;50.328;7.610;2023-05-27T14:06:30;26.70;1.00
10294;DHT22;5192;50.328;7.610;2023-05-27T14:08:58;26.90;1.00
10294;DHT22;5192;50.328;7.610;2023-05-27T14:11:25;27.40;1.00
10294;DHT22;5192;50.328;7.610;2023-05-27T14:13:56;28.10;1.00
10294;DHT22;5192;50.328;7.610;2023-05-27T14:16:24;28.70;1.00
10294;DHT22;5192;50.328;7.610;2023-05-27T14:18:51;29.50;1.00
10294;DHT22;5192;50.328;7.610;2023-05-27T14:21:18;29.90;1.00
10294;DHT22;5192;50.328;7.610;2023-05-27T14:23:44;30.70;1.00
10294;DHT22;5192;50.328;7.610;2023-05-27T14:26:11;31.20;1.00
10294;DHT22;5192;50.328;7.610;2023-05-27T14:28:38;31.90;1.00
10294;DHT22;5192;50.328;7.610;2023-05-27T14:31:04;32.30;1.00
10294;DHT22;5192;50.328;7.610;2023-05-27T14:33:33;32.40;1.00
10294;DHT22;5192;50.328;7.610;2023-05-27T14:36:01;32.60;1.00
10294;DHT22;5192;50.328;7.610;2023-05-27T14:38:29;32.40;1.00
10294;DHT22;5192;50.328;7.610;2023-05-27T14:40:56;32.40;1.00
10294;DHT22;5192;50.328;7.610;2023-05-27T14:43:25;32.30;1.00
10294;DHT22;5192;50.328;7.610;2023-05-27T14:45:52;32.60;1.00
10294;DHT22;5192;50.328;7.610;2023-05-27T14:48:18;33.60;1.00
10294;DHT22;5192;50.328;7.610;2023-05-27T14:50:46;33.90;1.00
10294;DHT22;5192;50.328;7.610;2023-05-27T14:53:13;33.80;1.00
10294;DHT22;5192;50.328;7.610;2023-05-27T14:55:40;34.00;1.00
10294;DHT22;5192;50.328;7.610;2023-05-27T14:58:07;34.50;1.00
10294;DHT22;5192;50.328;7.610;2023-05-27T15:00:35;33.50;1.00
10294;DHT22;5192;50.328;7.610;2023-05-27T15:03:02;33.90;1.00
10294;DHT22;5192;50.328;7.610;2023-05-27T15:05:29;33.80;1.00
10294;DHT22;5192;50.328;7.610;2023-05-27T15:07:56;33.80;1.00
10294;DHT22;5192;50.328;7.610;2023-05-27T15:10:26;33.80;1.00
10294;DHT22;5192;50.328;7.610;2023-05-27T15:12:53;34.00;1.00
10294;DHT22;5192;50.328;7.610;2023-05-27T15:15:20;33.40;1.00
10294;DHT22;5192;50.328;7.610;2023-05-27T15:17:46;33.20;1.00
10294;DHT22;5192;50.328;7.610;2023-05-27T15:20:14;33.60;1.00
10294;DHT22;5192;50.328;7.610;2023-05-27T15:22:41;33.50;1.00
10294;DHT22;5192;50.328;7.610;2023-05-27T15:25:09;33.70;1.00
10294;DHT22;5192;50.328;7.610;2023-05-27T15:27:35;33.80;1.00
10294;DHT22;5192;50.328;7.610;2023-05-27T15:30:05;33.80;1.00
10294;DHT22;5192;50.328;7.610;2023-05-27T15:32:33;33.80;1.00
10294;DHT22;5192;50.328;7.610;2023-05-27T15:35:02;34.00;1.00
10294;DHT22;5192;50.328;7.610;2023-05-27T15:37:30;34.00;1.00
10294;DHT22;5192;50.328;7.610;2023-05-27T15:39:56;34.90;1.00
10294;DHT22;5192;50.328;7.610;2023-05-27T15:42:23;35.80;1.00
10294;DHT22;5192;50.328;7.610;2023-05-27T15:44:51;36.00;1.00
10294;DHT22;5192;50.328;7.610;2023-05-27T15:47:17;35.70;1.00
10294;DHT22;5192;50.328;7.610;2023-05-27T15:49:44;34.60;1.00
10294;DHT22;5192;50.328;7.610;2023-05-27T15:52:11;34.50;1.00
10294;DHT22;5192;50.328;7.610;2023-05-27T15:54:38;34.40;1.00
10294;DHT22;5192;50.328;7.610;2023-05-27T15:57:10;34.20;1.00
10294;DHT22;5192;50.328;7.610;2023-05-27T15:59:38;33.30;1.00
10294;DHT22;5192;50.328;7.610;2023-05-27T16:02:06;33.50;1.00
10294;DHT22;5192;50.328;7.610;2023-05-27T16:04:33;33.60;1.00
10294;DHT22;5192;50.328;7.610;2023-05-27T16:07:05;33.80;1.00
10294;DHT22;5192;50.328;7.610;2023-05-27T16:09:33;33.70;1.00
10294;DHT22;5192;50.328;7.610;2023-05-27T16:12:00;33.70;1.00
10294;DHT22;5192;50.328;7.610;2023-05-27T16:14:30;34.00;1.00